Time;durP1;ratioP1;P1;durP2;ratioP2;P2;SDS_P1;SDS_P2;PMS_P1;PMS_P2;Temp;Humidity;BMP_temperature;BMP_pressure;BME280_temperature;BME280_humidity;BME280_pressure;Samples;Min_cycle;Max_cycle;Signal;HPM_P1;HPM_P2
2022/07/19 00:00:59;;;;;;;6.55;3.10;;;;;;;17.16;100.00;101349.38;5062527;28;20049;-88
2022/07/19 00:03:33;;;;;;;7.22;3.05;;;;;;;17.15;100.00;101356.03;5056618;28;20040;-86
2022/07/19 00:06:07;;;;;;;5.70;2.88;;;;;;;17.13;100.00;101350.00;5051106;28;20053;-88
2022/07/19 00:08:40;;;;;;;8.45;3.17;;;;;;;17.17;100.00;101358.47;5051283;28;20075;-87
2022/07/19 00:11:14;;;;;;;9.15;3.33;;;;;;;17.15;100.00;101355.19;5064882;28;20041;-88
2022/07/19 00:13:42;;;;;;;5.10;2.78;;;;;;;17.12;100.00;101356.66;5055079;28;20047;-89
2022/07/19 00:16:15;;;;;;;8.27;2.90;;;;;;;17.11;100.00;101355.00;5057691;28;20079;-86
2022/07/19 00:18:48;;;;;;;7.43;3.05;;;;;;;17.08;100.00;101352.88;5063576;28;20045;-88
2022/07/19 00:21:23;;;;;;;7.88;3.03;;;;;;;17.06;100.00;101348.81;5075130;28;20051;-88
2022/07/19 00:23:56;;;;;;;7.43;3.13;;;;;;;17.07;100.00;101351.25;5065610;28;20041;-88
2022/07/19 00:26:30;;;;;;;8.90;3.10;;;;;;;16.98;100.00;101353.88;5059299;28;20417;-86
2022/07/19 00:29:04;;;;;;;11.38;3.53;;;;;;;16.92;100.00;101349.63;5060124;28;20408;-88
2022/07/19 00:31:37;;;;;;;6.70;3.08;;;;;;;16.93;100.00;101356.75;5070073;28;20508;-87
2022/07/19 00:34:10;;;;;;;5.90;2.85;;;;;;;16.90;100.00;101354.59;5066194;28;20053;-88
2022/07/19 00:36:45;;;;;;;18.73;3.67;;;;;;;16.96;100.00;101369.09;5060215;28;20051;-87
2022/07/19 00:39:13;;;;;;;63.08;6.25;;;;;;;16.95;100.00;101354.50;5071227;28;20508;-87
2022/07/19 00:41:46;;;;;;;43.90;5.35;;;;;;;16.92;100.00;101366.13;5063280;28;20059;-88
2022/07/19 00:44:22;;;;;;;31.17;4.47;;;;;;;16.93;100.00;101364.19;5062092;28;20056;-87
2022/07/19 00:46:55;;;;;;;9.57;3.33;;;;;;;16.88;100.00;101364.28;5065074;28;20500;-88
2022/07/19 00:49:28;;;;;;;6.78;2.75;;;;;;;16.87;100.00;101373.63;5072219;28;20126;-88
2022/07/19 00:52:00;;;;;;;7.40;3.25;;;;;;;16.89;100.00;101365.91;5062800;28;20056;-87
2022/07/19 00:54:35;;;;;;;6.90;2.72;;;;;;;16.86;100.00;101372.00;5066706;28;20048;-86
2022/07/19 00:57:10;;;;;;;9.20;3.17;;;;;;;16.84;100.00;101359.38;5052217;28;20394;-83
2022/07/19 00:59:39;;;;;;;5.70;2.60;;;;;;;16.79;100.00;101367.75;5067652;28;20405;-87
2022/07/19 01:02:13;;;;;;;6.60;2.97;;;;;;;16.74;100.00;101367.03;5061050;28;20870;-89
2022/07/19 01:04:41;;;;;;;7.20;3.00;;;;;;;16.74;100.00;101365.09;5069797;28;20464;-88
2022/07/19 01:07:16;;;;;;;7.35;3.30;;;;;;;16.79;100.00;101370.47;5083339;28;20055;-89
2022/07/19 01:09:50;;;;;;;6.93;3.08;;;;;;;16.83;100.00;101368.75;5067622;28;20040;-87
2022/07/19 01:12:24;;;;;;;7.00;3.00;;;;;;;16.87;100.00;101363.44;5064038;28;20049;-88
2022/07/19 01:14:57;;;;;;;7.07;2.75;;;;;;;16.84;100.00;101369.56;5063865;28;20049;-88
2022/07/19 01:17:30;;;;;;;7.18;3.15;;;;;;;16.84;100.00;101367.63;5056792;28;20068;-88
2022/07/19 01:19:58;;;;;;;8.40;2.90;;;;;;;16.88;100.00;101367.03;5068233;28;20040;-85
2022/07/19 01:22:28;;;;;;;7.25;2.90;;;;;;;16.86;100.00;101372.81;5061366;28;20057;-87
2022/07/19 01:25:01;;;;;;;7.13;2.97;;;;;;;16.90;100.00;101375.81;5066734;28;20048;-86
2022/07/19 01:27:39;;;;;;;7.28;3.10;;;;;;;16.92;100.00;101371.63;5074331;28;20052;-87
2022/07/19 01:30:17;;;;;;;6.45;3.15;;;;;;;16.84;100.00;101375.06;5069725;28;20507;-88
2022/07/19 01:32:50;;;;;;;9.02;3.45;;;;;;;16.67;100.00;101372.91;5062139;28;20052;-88
2022/07/19 01:35:24;;;;;;;7.55;3.17;;;;;;;16.53;100.00;101372.91;5067546;28;20048;-88
2022/07/19 01:37:58;;;;;;;6.82;2.92;;;;;;;16.40;100.00;101376.44;5068338;28;20051;-88
2022/07/19 01:40:33;;;;;;;9.13;3.17;;;;;;;16.22;100.00;101378.94;5071559;28;20416;-88
2022/07/19 01:43:08;;;;;;;5.82;2.90;;;;;;;16.29;100.00;101370.31;5061249;28;20056;-88
2022/07/19 01:45:41;;;;;;;5.95;2.92;;;;;;;16.31;100.00;101374.38;5061993;28;20044;-88
2022/07/19 01:48:09;;;;;;;6.85;3.10;;;;;;;16.35;100.00;101376.53;5053932;28;20072;-89
2022/07/19 01:50:43;;;;;;;7.78;3.00;;;;;;;16.34;100.00;101370.22;5065629;28;20033;-87
2022/07/19 01:53:17;;;;;;;6.80;3.70;;;;;;;16.32;100.00;101373.28;5062969;28;20441;-88
2022/07/19 01:55:50;;;;;;;8.10;4.00;;;;;;;16.23;100.00;101368.78;5069371;28;20779;-87
2022/07/19 01:58:24;;;;;;;8.80;3.60;;;;;;;16.22;100.00;101365.19;5072544;28;20060;-88
2022/07/19 02:01:01;;;;;;;6.07;3.08;;;;;;;16.24;100.00;101367.66;5072666;28;20055;-89
2022/07/19 02:03:29;;;;;;;6.90;3.40;;;;;;;16.19;100.00;101367.75;5072601;28;20481;-87
2022/07/19 02:06:03;;;;;;;7.75;3.35;;;;;;;16.18;100.00;101369.66;5060336;28;20052;-89
2022/07/19 02:08:38;;;;;;;6.65;3.25;;;;;;;16.15;100.00;101356.53;5072257;28;20056;-89
2022/07/19 02:13:58;;;;;;;7.05;3.42;;;;;;;16.09;100.00;101360.50;5070540;28;20055;-88
2022/07/19 02:16:31;;;;;;;7.82;3.13;;;;;;;16.08;100.00;101365.16;5072284;28;20056;-88
2022/07/19 02:18:59;;;;;;;6.47;3.03;;;;;;;16.02;100.00;101362.81;5071915;28;20068;-89
2022/07/19 02:21:33;;;;;;;6.65;3.17;;;;;;;15.98;100.00;101362.59;5073598;28;20044;-87
2022/07/19 02:24:03;;;;;;;7.88;3.40;;;;;;;15.87;100.00;101364.69;5072158;28;20052;-88
2022/07/19 02:26:37;;;;;;;6.03;3.20;;;;;;;15.80;100.00;101367.81;5071847;28;20052;-87
2022/07/19 02:29:10;;;;;;;6.63;3.03;;;;;;;15.74;100.00;101363.50;5071923;28;20056;-89
2022/07/19 02:31:44;;;;;;;8.75;3.20;;;;;;;15.77;100.00;101362.06;5073090;28;20408;-87
2022/07/19 02:34:17;;;;;;;6.80;3.08;;;;;;;15.80;100.00;101365.06;5069528;28;20425;-89
2022/07/19 02:36:50;;;;;;;6.43;3.05;;;;;;;15.78;100.00;101358.22;5053520;28;20389;-89
2022/07/19 02:39:25;;;;;;;9.10;3.67;;;;;;;15.75;100.00;101351.38;5069714;28;20055;-90
2022/07/19 02:41:58;;;;;;;8.68;3.33;;;;;;;15.78;100.00;101353.56;5057705;28;20473;-91
2022/07/19 02:44:31;;;;;;;6.90;3.30;;;;;;;15.76;100.00;101357.72;5053297;28;20063;-91
2022/07/19 02:47:04;;;;;;;6.85;3.25;;;;;;;15.68;100.00;101359.19;5051826;28;20060;-90
2022/07/19 02:49:37;;;;;;;7.13;3.15;;;;;;;15.62;100.00;101361.19;5068091;28;20053;-91
2022/07/19 02:52:11;;;;;;;6.50;3.22;;;;;;;15.68;100.00;101356.44;5073382;28;20045;-89
2022/07/19 02:54:45;;;;;;;9.75;3.45;;;;;;;15.58;100.00;101348.38;5072021;28;20126;-90
2022/07/19 02:57:18;;;;;;;7.10;3.22;;;;;;;15.63;100.00;101362.00;5070973;28;20059;-89
2022/07/19 02:59:51;;;;;;;10.05;3.25;;;;;;;15.63;100.00;101365.56;5051275;28;20064;-89
2022/07/19 03:02:24;;;;;;;6.65;3.30;;;;;;;15.65;100.00;101365.28;5053070;28;20045;-89
2022/07/19 03:04:57;;;;;;;6.38;3.35;;;;;;;15.64;100.00;101361.69;5051641;28;20056;-90
2022/07/19 03:07:26;;;;;;;6.78;3.38;;;;;;;15.55;100.00;101360.75;5051101;28;20052;-88
2022/07/19 03:10:00;;;;;;;6.65;3.35;;;;;;;15.47;100.00;101372.41;5052875;28;20051;-86
2022/07/19 03:12:28;;;;;;;9.45;3.85;;;;;;;15.47;100.00;101370.47;5051216;28;20045;-90
2022/07/19 03:15:02;;;;;;;8.13;3.78;;;;;;;15.50;100.00;101363.56;5053226;28;20045;-89
2022/07/19 03:17:35;;;;;;;8.30;3.30;;;;;;;15.54;100.00;101369.28;5052415;28;20041;-90
2022/07/19 03:20:10;;;;;;;7.22;3.53;;;;;;;15.50;100.00;101371.81;5052643;28;20041;-90
2022/07/19 03:22:43;;;;;;;9.30;4.00;;;;;;;15.42;100.00;101370.53;5051308;28;20056;-90
2022/07/19 03:25:18;;;;;;;9.07;3.92;;;;;;;15.35;100.00;101359.13;5051437;28;20056;-89
2022/07/19 03:27:54;;;;;;;7.77;4.10;;;;;;;15.18;100.00;101370.59;5052140;28;20040;-90
2022/07/19 03:30:27;;;;;;;11.02;4.18;;;;;;;15.00;100.00;101368.63;5055133;28;20044;-89
2022/07/19 03:32:55;;;;;;;7.88;4.15;;;;;;;14.92;100.00;101381.06;5070067;28;20412;-91
2022/07/19 03:35:28;;;;;;;8.07;3.92;;;;;;;14.92;100.00;101381.84;5070974;28;20059;-90
2022/07/19 03:38:01;;;;;;;8.00;4.10;;;;;;;14.85;100.00;101373.19;5067828;28;20063;-89
2022/07/19 03:40:36;;;;;;;7.47;3.72;;;;;;;14.88;100.00;101378.06;5069396;28;20052;-89
2022/07/19 03:43:09;;;;;;;7.60;3.65;;;;;;;14.89;100.00;101384.38;5071107;28;20044;-88
2022/07/19 03:45:42;;;;;;;7.43;3.60;;;;;;;14.97;100.00;101375.53;5071167;28;20052;-90
2022/07/19 03:48:11;;;;;;;9.30;4.03;;;;;;;15.01;100.00;101378.47;5068705;28;20052;-90
2022/07/19 03:50:44;;;;;;;7.35;3.85;;;;;;;15.00;100.00;101383.16;5050418;28;20045;-89
2022/07/19 03:53:13;;;;;;;9.73;3.78;;;;;;;14.97;100.00;101378.25;5050405;28;20049;-89
2022/07/19 03:55:48;;;;;;;7.35;3.95;;;;;;;14.95;100.00;101374.97;5052225;28;20063;-90
2022/07/19 03:58:21;;;;;;;8.70;3.75;;;;;;;15.01;100.00;101375.72;5050998;28;20048;-90
2022/07/19 04:00:54;;;;;;;9.07;3.78;;;;;;;15.05;100.00;101379.53;5054506;28;20045;-87
2022/07/19 04:03:27;;;;;;;8.13;3.70;;;;;;;15.12;100.00;101382.72;5061122;28;20049;-86
2022/07/19 04:06:00;;;;;;;6.28;3.53;;;;;;;15.16;100.00;101375.53;5058417;28;20048;-87
2022/07/19 04:08:34;;;;;;;8.75;4.28;;;;;;;15.25;100.00;101372.97;5063463;28;20405;-89
2022/07/19 04:11:04;;;;;;;8.40;3.67;;;;;;;15.32;100.00;101367.94;5071874;28;20462;-88
2022/07/19 04:13:34;;;;;;;9.00;3.90;;;;;;;15.41;100.00;101377.16;5058590;28;20049;-89
2022/07/19 04:16:07;;;;;;;7.28;3.58;;;;;;;15.47;100.00;101375.94;5066497;28;20045;-88
2022/07/19 04:18:41;;;;;;;7.60;3.80;;;;;;;15.19;100.00;101322.88;5058825;28;20043;-88
2022/07/19 04:21:09;;;;;;;8.43;3.63;;;;;;;15.55;100.00;101362.66;5053273;28;20048;-87
2022/07/19 04:23:42;;;;;;;8.85;3.60;;;;;;;15.76;100.00;101387.91;5062120;28;20056;-88
2022/07/19 04:26:12;;;;;;;8.13;3.63;;;;;;;15.85;100.00;101385.31;5062959;28;20063;-88
2022/07/19 04:28:45;;;;;;;7.70;3.53;;;;;;;15.71;100.00;101382.47;5065530;28;20068;-88
2022/07/19 04:31:18;;;;;;;9.32;3.60;;;;;;;15.68;100.00;101367.41;5067267;28;20481;-88
2022/07/19 04:33:54;;;;;;;13.38;3.80;;;;;;;15.77;100.00;101384.84;5061668;28;20049;-89
2022/07/19 04:36:27;;;;;;;11.40;3.72;;;;;;;15.84;100.00;101392.75;5058975;28;20064;-88
2022/07/19 04:38:55;;;;;;;6.45;3.55;;;;;;;15.86;100.00;101398.72;5063753;28;20060;-88
2022/07/19 04:41:30;;;;;;;6.85;3.45;;;;;;;15.88;100.00;101388.28;5063917;28;20055;-89
2022/07/19 04:44:03;;;;;;;10.30;4.07;;;;;;;15.84;100.00;101400.16;5065257;28;20135;-87
2022/07/19 04:46:36;;;;;;;8.20;4.00;;;;;;;15.75;100.00;101406.28;5060530;28;20041;-88
2022/07/19 04:49:09;;;;;;;8.27;3.90;;;;;;;15.82;100.00;101400.44;5070494;28;20063;-87
2022/07/19 04:51:42;;;;;;;6.20;3.50;;;;;;;15.85;100.00;101405.34;5069740;28;20045;-88
2022/07/19 04:54:15;;;;;;;7.88;4.22;;;;;;;15.83;100.00;101404.03;5056711;28;20056;-89
2022/07/19 04:56:50;;;;;;;7.80;3.78;;;;;;;15.85;100.00;101399.84;5065399;28;20041;-89
2022/07/19 04:59:23;;;;;;;7.38;3.90;;;;;;;16.04;100.00;101402.56;5059116;28;20049;-89
2022/07/19 05:01:56;;;;;;;8.23;4.18;;;;;;;16.15;100.00;101397.72;5060126;28;20048;-88
2022/07/19 05:04:24;;;;;;;8.27;4.57;;;;;;;16.18;100.00;101399.06;5062147;28;20057;-88
2022/07/19 05:06:58;;;;;;;7.40;4.13;;;;;;;16.49;100.00;101400.16;5056038;28;20049;-88
2022/07/19 05:09:31;;;;;;;8.40;4.05;;;;;;;17.14;100.00;101403.09;5069524;28;20055;-88
2022/07/19 05:12:05;;;;;;;7.53;4.05;;;;;;;17.39;100.00;101401.72;5058465;28;20040;-87
2022/07/19 05:14:33;;;;;;;9.68;5.03;;;;;;;17.83;100.00;101399.38;5069830;28;20056;-87
2022/07/19 05:17:06;;;;;;;8.75;4.00;;;;;;;20.08;100.00;101385.13;5060004;28;20079;-88
2022/07/19 05:19:35;;;;;;;9.98;4.32;;;;;;;21.42;100.00;101388.63;5053786;28;20056;-88
2022/07/19 05:22:08;;;;;;;8.57;4.18;;;;;;;23.13;100.00;101377.56;5071014;28;20072;-88
2022/07/19 05:24:36;;;;;;;7.93;4.03;;;;;;;23.77;100.00;101366.78;5071375;28;20037;-88
2022/07/19 05:27:11;;;;;;;9.18;3.88;;;;;;;25.05;100.00;101361.31;5065796;28;20513;-88
2022/07/19 05:29:44;;;;;;;9.30;3.75;;;;;;;26.28;95.26;101365.47;5056469;28;20405;-85
2022/07/19 05:32:18;;;;;;;6.55;3.90;;;;;;;27.15;86.05;101366.84;5064486;28;20101;-87
2022/07/19 05:34:51;;;;;;;6.80;4.00;;;;;;;27.47;81.50;101366.53;5061895;28;20053;-88
2022/07/19 05:37:24;;;;;;;7.97;3.90;;;;;;;27.83;72.96;101358.56;5064137;28;20048;-88
2022/07/19 05:39:52;;;;;;;7.68;3.80;;;;;;;28.42;72.52;101360.75;5060492;28;20057;-87
2022/07/19 05:42:27;;;;;;;7.70;3.92;;;;;;;28.51;68.69;101350.81;5059398;28;20587;-88
2022/07/19 05:44:55;;;;;;;7.10;3.70;;;;;;;28.45;68.63;101360.78;5062914;28;20053;-89
2022/07/19 05:47:28;;;;;;;7.05;3.88;;;;;;;27.33;73.58;101359.53;5063814;28;20541;-88
2022/07/19 05:50:01;;;;;;;7.38;3.97;;;;;;;26.07;75.37;101365.06;5062767;28;20056;-87
2022/07/19 05:52:34;;;;;;;5.50;3.25;;;;;;;25.02;80.68;101376.75;5058978;28;20401;-88
2022/07/19 05:55:02;;;;;;;8.48;3.15;;;;;;;24.08;90.52;101371.59;5061496;28;20053;-88
2022/07/19 05:57:32;;;;;;;7.88;3.83;;;;;;;23.47;92.49;101380.97;5066383;28;20052;-87
2022/07/19 06:00:10;;;;;;;9.35;3.60;;;;;;;23.10;98.63;101379.06;5066547;28;20053;-86
2022/07/19 06:02:43;;;;;;;7.95;3.97;;;;;;;22.66;100.00;101387.16;5062434;28;20049;-88
2022/07/19 06:05:16;;;;;;;9.00;4.03;;;;;;;22.33;100.00;101396.31;5059149;28;20789;-88
2022/07/19 06:07:44;;;;;;;7.82;4.20;;;;;;;22.01;100.00;101389.63;5060839;28;20896;-87
2022/07/19 06:10:17;;;;;;;7.57;3.67;;;;;;;22.02;100.00;101385.72;5067955;28;20916;-88
2022/07/19 06:12:52;;;;;;;8.80;4.10;;;;;;;22.06;100.00;101381.09;5063831;28;20432;-87
2022/07/19 06:15:25;;;;;;;7.40;3.90;;;;;;;21.95;100.00;101382.69;5052459;28;20421;-87
2022/07/19 06:17:53;;;;;;;7.85;4.13;;;;;;;22.02;100.00;101386.50;5061640;28;20426;-89
2022/07/19 06:20:26;;;;;;;6.45;3.63;;;;;;;22.02;100.00;101389.28;5057777;28;20889;-88
2022/07/19 06:23:00;;;;;;;7.32;4.07;;;;;;;21.90;100.00;101389.22;5061080;28;20808;-88
2022/07/19 06:25:28;;;;;;;7.50;3.65;;;;;;;21.78;100.00;101390.00;5070141;28;20423;-88
2022/07/19 06:28:03;;;;;;;7.90;3.75;;;;;;;21.71;100.00;101378.66;5070447;28;20419;-87
2022/07/19 06:30:36;;;;;;;8.52;3.80;;;;;;;22.10;100.00;101382.03;5068374;28;20439;-87
2022/07/19 06:33:09;;;;;;;7.03;3.80;;;;;;;22.38;100.00;101390.56;5062269;28;20446;-91
2022/07/19 06:35:42;;;;;;;8.57;4.03;;;;;;;22.53;100.00;101382.75;5058662;28;20456;-86
2022/07/19 06:38:16;;;;;;;8.70;3.75;;;;;;;22.69;100.00;101389.25;5051489;28;20429;-86
2022/07/19 06:40:49;;;;;;;8.53;3.80;;;;;;;22.85;100.00;101403.22;5063499;28;20427;-87
2022/07/19 06:43:24;;;;;;;6.60;3.60;;;;;;;22.97;100.00;101390.53;5069211;28;20924;-90
2022/07/19 06:45:52;;;;;;;7.65;4.00;;;;;;;23.09;100.00;101398.81;5059340;28;20425;-89
2022/07/19 06:48:25;;;;;;;6.85;3.75;;;;;;;23.16;100.00;101393.53;5050753;28;20417;-90
2022/07/19 06:50:54;;;;;;;6.93;3.85;;;;;;;23.25;96.49;101391.44;5051578;28;20413;-88
2022/07/19 06:53:27;;;;;;;8.35;5.20;;;;;;;23.22;100.00;101405.22;5053018;28;20774;-88
2022/07/19 06:56:00;;;;;;;12.85;7.68;;;;;;;23.42;100.00;101403.44;5061482;28;20421;-86
2022/07/19 06:58:35;;;;;;;11.02;6.22;;;;;;;23.48;100.00;101398.44;5070198;28;20442;-89
2022/07/19 07:01:03;;;;;;;10.13;4.30;;;;;;;23.44;93.22;101401.13;5053705;28;20424;-84
2022/07/19 07:03:36;;;;;;;9.03;4.23;;;;;;;23.61;94.10;101400.03;5040186;28;20439;-85
2022/07/19 07:06:09;;;;;;;7.75;3.65;;;;;;;23.70;95.55;101397.13;5040702;28;20895;-85
2022/07/19 07:08:43;;;;;;;9.25;4.03;;;;;;;23.81;82.59;101395.47;5041820;28;20503;-86
2022/07/19 07:11:16;;;;;;;9.07;4.63;;;;;;;23.91;94.82;101397.75;5047726;28;20431;-86
2022/07/19 07:13:50;;;;;;;10.38;4.55;;;;;;;23.88;92.51;101400.47;5043752;28;20796;-86
2022/07/19 07:16:18;;;;;;;11.13;5.18;;;;;;;24.10;79.93;101397.09;5051876;28;20439;-87
2022/07/19 07:18:52;;;;;;;10.55;4.88;;;;;;;24.09;95.25;101398.25;5048435;28;20427;-85
2022/07/19 07:21:25;;;;;;;11.80;4.43;;;;;;;24.14;74.46;101386.09;5051453;28;21232;-87
2022/07/19 07:23:58;;;;;;;6.15;3.53;;;;;;;24.29;73.38;101384.47;5046910;28;21759;-91
2022/07/19 07:26:32;;;;;;;7.65;3.60;;;;;;;24.31;75.03;101390.50;5045727;28;20432;-90
2022/07/19 07:29:01;;;;;;;6.40;3.50;;;;;;;24.27;85.68;101384.84;5046920;28;20419;-86
2022/07/19 07:31:36;;;;;;;7.20;3.83;;;;;;;24.41;79.75;101380.81;5043622;28;20420;-87
2022/07/19 07:34:04;;;;;;;6.82;3.60;;;;;;;24.50;74.19;101375.91;5045796;28;20920;-90
2022/07/19 07:36:37;;;;;;;6.82;3.58;;;;;;;24.26;90.83;101377.69;5047122;28;20435;-91
2022/07/19 07:39:10;;;;;;;6.63;3.60;;;;;;;24.31;78.35;101379.38;5043715;28;20420;-93
2022/07/19 07:41:43;;;;;;;6.00;3.50;;;;;;;24.31;69.23;101375.81;5047640;28;20435;-91
2022/07/19 07:44:14;;;;;;;6.07;3.20;;;;;;;24.35;80.08;101385.84;5041830;28;20987;-90
2022/07/19 07:46:47;;;;;;;6.35;3.35;;;;;;;24.43;80.11;101384.88;5050441;28;20434;-88
2022/07/19 07:49:16;;;;;;;6.68;3.33;;;;;;;24.72;73.07;101384.78;5025019;28;21060;-86
2022/07/19 07:51:49;;;;;;;6.10;3.25;;;;;;;24.56;79.14;101385.56;5029166;28;20446;-81
2022/07/19 07:54:17;;;;;;;5.97;3.45;;;;;;;24.69;77.83;101383.56;5032431;28;20958;-80
2022/07/19 07:56:50;;;;;;;6.55;3.40;;;;;;;24.64;77.29;101377.44;5029462;28;21330;-85
2022/07/19 07:59:25;;;;;;;7.07;3.55;;;;;;;24.72;80.42;101374.47;5032723;28;20432;-84
2022/07/19 08:01:58;;;;;;;6.17;3.30;;;;;;;24.77;81.69;101374.19;5039680;28;20431;-84
2022/07/19 08:04:31;;;;;;;6.75;3.38;;;;;;;25.10;68.76;101372.97;5026882;28;20986;-84
2022/07/19 08:06:59;;;;;;;6.57;3.17;;;;;;;25.12;69.14;101367.88;5039033;28;20438;-85
2022/07/19 08:09:33;;;;;;;6.28;3.20;;;;;;;25.29;68.42;101361.06;5036835;28;20434;-89
2022/07/19 08:12:01;;;;;;;6.47;3.13;;;;;;;25.30;68.04;101362.69;5039620;28;20438;-83
2022/07/19 08:14:36;;;;;;;6.83;3.20;;;;;;;25.43;64.86;101366.16;5040411;28;20424;-84
2022/07/19 08:17:09;;;;;;;5.70;3.33;;;;;;;25.56;66.27;101349.31;5049935;28;20427;-87
2022/07/19 08:19:42;;;;;;;6.60;3.28;;;;;;;25.54;72.33;101355.25;5031240;28;20445;-81
2022/07/19 08:22:15;;;;;;;6.97;3.22;;;;;;;25.68;63.13;101351.94;5035550;28;20429;-84
2022/07/19 08:24:48;;;;;;;8.05;3.35;;;;;;;25.71;66.17;101351.19;5037491;28;20784;-86
2022/07/19 08:27:22;;;;;;;5.68;3.25;;;;;;;25.82;76.85;101353.41;5032950;28;20436;-80
2022/07/19 08:29:59;;;;;;;10.77;5.70;;;;;;;25.83;59.94;101344.69;5043515;28;20430;-88
2022/07/19 08:32:32;;;;;;;6.35;3.20;;;;;;;25.82;66.31;101343.06;5041894;28;21186;-87
2022/07/19 08:35:07;;;;;;;6.45;3.50;;;;;;;25.86;71.97;101341.16;5042190;28;20871;-90
2022/07/19 08:37:40;;;;;;;6.03;3.20;;;;;;;26.00;69.05;101337.81;5040321;28;20434;-86
2022/07/19 08:40:13;;;;;;;6.57;3.17;;;;;;;26.28;63.50;101339.53;5044290;28;21092;-85
2022/07/19 08:42:42;;;;;;;6.80;3.40;;;;;;;26.62;59.69;101340.50;5049672;28;20483;-90
2022/07/19 08:45:16;;;;;;;5.60;3.10;;;;;;;26.55;62.83;101336.81;5047915;28;20439;-88
2022/07/19 08:47:50;;;;;;;6.05;3.03;;;;;;;26.60;50.29;101331.72;5038796;28;20437;-87
2022/07/19 08:50:26;;;;;;;5.63;2.97;;;;;;;26.57;66.83;101343.63;5035542;28;20424;-84
2022/07/19 08:52:56;;;;;;;5.90;2.67;;;;;;;26.55;55.77;101334.81;5038041;28;20437;-88
2022/07/19 08:55:30;;;;;;;5.70;2.83;;;;;;;26.83;56.88;101325.28;5046899;28;20424;-90
2022/07/19 08:57:57;;;;;;;5.90;2.80;;;;;;;26.78;50.88;101314.47;5034014;28;20962;-87
2022/07/19 09:00:33;;;;;;;5.25;2.70;;;;;;;26.84;61.74;101337.28;5036501;28;20431;-93
2022/07/19 09:03:08;;;;;;;5.10;2.92;;;;;;;26.80;61.02;101326.84;5051276;28;20442;-89
2022/07/19 09:05:37;;;;;;;7.95;4.25;;;;;;;26.88;43.34;101318.59;5044434;28;20420;-86
2022/07/19 09:08:11;;;;;;;10.10;6.05;;;;;;;27.02;58.22;101331.97;5051757;28;20424;-87
2022/07/19 09:10:42;;;;;;;5.95;3.35;;;;;;;27.14;52.63;101332.53;5054493;28;20429;-89
2022/07/19 09:13:12;;;;;;;6.25;3.10;;;;;;;27.01;60.72;101294.81;5055561;28;20785;-87
2022/07/19 09:15:47;;;;;;;5.90;2.80;;;;;;;27.28;57.26;101331.91;5049362;28;20424;-89
2022/07/19 09:18:23;;;;;;;5.15;2.92;;;;;;;27.27;52.57;101329.50;5051468;28;21021;-89
2022/07/19 09:20:58;;;;;;;6.38;3.13;;;;;;;27.27;56.89;101313.53;5052538;28;20961;-90
2022/07/19 09:23:27;;;;;;;6.03;2.78;;;;;;;27.47;53.67;101330.19;5052511;28;20423;-90
2022/07/19 09:26:11;;;;;;;5.05;2.90;;;;;;;27.33;47.05;101306.44;5052218;28;21293;-91
2022/07/19 09:28:39;;;;;;;4.80;2.70;;;;;;;27.21;46.02;101277.94;5051700;28;20911;-88
2022/07/19 09:31:09;;;;;;;5.53;3.05;;;;;;;27.56;47.00;101322.28;5051302;28;20439;-88
2022/07/19 09:33:37;;;;;;;5.40;2.90;;;;;;;27.69;48.34;101327.63;5055549;28;20416;-88
2022/07/19 09:36:13;;;;;;;5.78;3.00;;;;;;;27.71;54.32;101323.25;5054163;28;20424;-88
2022/07/19 09:38:52;;;;;;;6.90;3.10;;;;;;;27.82;56.15;101320.59;5052704;28;20969;-89
2022/07/19 09:41:25;;;;;;;5.50;2.83;;;;;;;27.86;62.37;101323.44;5052170;28;20443;-88
2022/07/19 09:43:56;;;;;;;5.13;2.80;;;;;;;27.84;50.69;101301.41;5051790;28;20418;-88
2022/07/19 09:46:33;;;;;;;5.35;2.70;;;;;;;28.05;50.28;101319.63;5050612;28;20416;-88
2022/07/19 09:49:08;;;;;;;6.03;2.97;;;;;;;27.90;50.10;101288.72;5049081;28;20420;-88
2022/07/19 09:51:39;;;;;;;6.13;2.90;;;;;;;27.94;55.61;101289.53;5047887;28;22241;-88
2022/07/19 09:54:15;;;;;;;5.53;2.70;;;;;;;28.20;54.17;101312.19;5051698;28;20431;-88
2022/07/19 09:56:45;;;;;;;4.85;2.63;;;;;;;28.26;44.63;101305.06;5048553;28;20418;-85
2022/07/19 09:59:22;;;;;;;4.63;2.47;;;;;;;28.14;39.34;101270.56;5057986;28;20453;-85
2022/07/19 10:01:58;;;;;;;6.38;3.63;;;;;;;28.46;42.02;101305.59;5059782;28;20784;-83
2022/07/19 10:04:33;;;;;;;5.32;2.60;;;;;;;28.56;38.06;101304.06;5045379;28;20442;-88
2022/07/19 10:07:07;;;;;;;3.63;2.17;;;;;;;28.55;36.34;101308.88;5051716;28;20415;-87
2022/07/19 10:09:36;;;;;;;5.03;2.45;;;;;;;28.45;35.88;101285.22;5050039;28;20423;-88
2022/07/19 10:12:09;;;;;;;4.43;2.40;;;;;;;28.59;47.67;101308.91;5025709;28;20435;-85
2022/07/19 10:14:43;;;;;;;5.93;2.72;;;;;;;28.76;45.66;101316.63;5040505;28;20423;-87
2022/07/19 10:17:27;;;;;;;5.07;2.60;;;;;;;28.88;41.76;101304.31;5036914;28;20422;-89
2022/07/19 10:19:56;;;;;;;6.30;2.60;;;;;;;28.99;40.72;101307.19;5036765;28;20411;-90
2022/07/19 10:22:30;;;;;;;5.05;2.55;;;;;;;29.04;42.86;101309.59;5034587;28;20470;-90
2022/07/19 10:25:13;;;;;;;4.40;2.50;;;;;;;29.06;42.57;101307.22;5035628;28;20431;-85
2022/07/19 10:27:47;;;;;;;4.82;2.33;;;;;;;28.91;36.46;101311.94;5034368;28;20498;-87
2022/07/19 10:30:19;;;;;;;4.30;2.58;;;;;;;29.10;38.22;101308.03;5046700;28;20424;-86
2022/07/19 10:32:52;;;;;;;7.72;5.18;;;;;;;29.17;38.22;101301.66;5052161;28;20423;-88
2022/07/19 10:35:23;;;;;;;4.15;2.45;;;;;;;29.22;39.86;101295.66;5045348;28;21769;-85
2022/07/19 10:38:07;;;;;;;4.50;2.30;;;;;;;29.42;37.43;101289.78;5046158;28;21711;-87
2022/07/19 10:40:37;;;;;;;3.80;2.17;;;;;;;29.61;36.87;101277.41;5050751;28;20419;-91
2022/07/19 10:43:06;;;;;;;5.03;2.40;;;;;;;29.63;35.96;101287.03;5044378;28;20414;-89
2022/07/19 10:45:35;;;;;;;4.80;2.10;;;;;;;29.71;40.76;101281.41;5039099;28;20423;-86
2022/07/19 10:48:08;;;;;;;4.40;2.40;;;;;;;29.56;35.75;101284.19;5039779;28;21084;-90
2022/07/19 10:50:51;;;;;;;4.50;2.08;;;;;;;29.52;33.52;101283.38;5051008;28;20415;-89
2022/07/19 10:53:58;;;;;;;3.22;1.83;;;;;;;29.62;37.60;101279.81;5051590;28;20424;-89
2022/07/19 10:56:50;;;;;;;3.33;1.80;;;;;;;29.74;31.44;101273.03;5038714;28;20436;-86
2022/07/19 10:59:37;;;;;;;3.70;1.90;;;;;;;29.67;28.95;101267.41;5039322;28;20420;-90
2022/07/19 11:02:23;;;;;;;3.20;1.75;;;;;;;29.74;31.20;101270.22;5038396;28;20651;-90
2022/07/19 11:04:58;;;;;;;4.65;2.10;;;;;;;29.92;31.49;101266.66;5022483;28;20859;-87
2022/07/19 11:07:31;;;;;;;3.78;2.00;;;;;;;30.07;32.17;101261.88;5036447;28;20919;-87
2022/07/19 11:10:02;;;;;;;4.28;1.80;;;;;;;30.15;30.04;101260.66;5048289;28;20861;-92
2022/07/19 11:12:37;;;;;;;4.03;2.00;;;;;;;30.24;35.57;101263.84;5035237;28;20442;-88
2022/07/19 11:15:11;;;;;;;3.47;1.90;;;;;;;30.34;32.86;101265.88;5037960;28;21366;-88
2022/07/19 11:17:52;;;;;;;3.95;2.28;;;;;;;30.38;33.03;101260.22;5043753;28;20438;-88
2022/07/19 11:20:28;;;;;;;3.37;1.80;;;;;;;30.49;32.66;101263.88;5032420;28;20435;-91
2022/07/19 11:22:58;;;;;;;2.90;1.90;;;;;;;30.53;29.24;101261.03;5033465;28;20428;-90
2022/07/19 11:25:33;;;;;;;3.50;2.08;;;;;;;30.62;30.63;101263.44;5037597;28;20424;-88
2022/07/19 11:28:01;;;;;;;3.23;1.80;;;;;;;30.59;29.83;101256.63;5038664;28;20434;-90
2022/07/19 11:30:35;;;;;;;3.55;1.90;;;;;;;30.64;31.76;101261.03;5040348;28;21002;-86
2022/07/19 11:33:08;;;;;;;4.32;2.03;;;;;;;30.80;29.67;101254.97;5033407;28;20423;-85
2022/07/19 11:35:53;;;;;;;3.65;1.80;;;;;;;30.87;29.22;101264.16;5040264;28;20442;-87
2022/07/19 11:38:21;;;;;;;3.67;1.98;;;;;;;31.11;33.78;101264.50;5039553;28;20946;-86
2022/07/19 11:40:55;;;;;;;3.60;2.00;;;;;;;31.08;31.29;101270.16;5035175;28;20459;-89
2022/07/19 11:43:29;;;;;;;5.07;2.00;;;;;;;31.00;36.48;101253.25;5036292;28;20435;-89
2022/07/19 11:46:03;;;;;;;4.20;2.00;;;;;;;31.12;33.35;101259.69;5024734;28;20458;-87
2022/07/19 11:48:36;;;;;;;3.53;1.88;;;;;;;31.05;30.15;101263.34;5031671;28;20419;-87